sensor_id;sensor_type;location;lat;lon;timestamp;temperature;humidity
8152;DHT22;4117;53.622;9.958;2022-12-20T00:01:07;6.10;99.90
8152;DHT22;4117;53.622;9.958;2022-12-20T00:03:35;6.10;99.90
8152;DHT22;4117;53.622;9.958;2022-12-20T00:06:02;6.20;99.90
8152;DHT22;4117;53.622;9.958;2022-12-20T00:08:29;6.20;99.90
8152;DHT22;4117;53.622;9.958;2022-12-20T00:10:59;6.20;99.90
8152;DHT22;4117;53.622;9.958;2022-12-20T00:13:27;6.20;99.90
8152;DHT22;4117;53.622;9.958;2022-12-20T00:16:08;6.30;99.90
8152;DHT22;4117;53.622;9.958;2022-12-20T00:18:35;6.30;99.90
8152;DHT22;4117;53.622;9.958;2022-12-20T00:21:04;6.30;99.90
8152;DHT22;4117;53.622;9.958;2022-12-20T00:23:33;6.30;99.90
8152;DHT22;4117;53.622;9.958;2022-12-20T00:26:02;6.40;99.90
8152;DHT22;4117;53.622;9.958;2022-12-20T00:28:29;6.40;99.90
8152;DHT22;4117;53.622;9.958;2022-12-20T00:30:56;6.40;99.90
8152;DHT22;4117;53.622;9.958;2022-12-20T00:33:25;6.30;99.90
8152;DHT22;4117;53.622;9.958;2022-12-20T00:35:53;6.30;99.90
8152;DHT22;4117;53.622;9.958;2022-12-20T00:38:21;6.30;99.90
8152;DHT22;4117;53.622;9.958;2022-12-20T00:40:58;6.30;99.90
8152;DHT22;4117;53.622;9.958;2022-12-20T00:43:25;6.30;99.90
8152;DHT22;4117;53.622;9.958;2022-12-20T00:45:52;6.40;99.90
8152;DHT22;4117;53.622;9.958;2022-12-20T00:48:19;6.40;99.90
8152;DHT22;4117;53.622;9.958;2022-12-20T00:50:47;6.40;99.90
8152;DHT22;4117;53.622;9.958;2022-12-20T00:53:14;6.40;99.90
8152;DHT22;4117;53.622;9.958;2022-12-20T00:55:41;6.40;99.90
8152;DHT22;4117;53.622;9.958;2022-12-20T00:58:09;6.40;99.90
8152;DHT22;4117;53.622;9.958;2022-12-20T01:00:36;6.40;99.90
8152;DHT22;4117;53.622;9.958;2022-12-20T01:03:06;6.40;99.90
8152;DHT22;4117;53.622;9.958;2022-12-20T01:05:33;6.40;99.90
8152;DHT22;4117;53.622;9.958;2022-12-20T01:08:01;6.40;99.90
8152;DHT22;4117;53.622;9.958;2022-12-20T01:10:28;6.40;99.90
8152;DHT22;4117;53.622;9.958;2022-12-20T01:12:55;6.40;99.90
8152;DHT22;4117;53.622;9.958;2022-12-20T01:15:22;6.40;99.90
8152;DHT22;4117;53.622;9.958;2022-12-20T01:17:49;6.40;99.90
8152;DHT22;4117;53.622;9.958;2022-12-20T01:20:16;6.40;99.90
8152;DHT22;4117;53.622;9.958;2022-12-20T01:22:43;6.30;99.90
8152;DHT22;4117;53.622;9.958;2022-12-20T01:25:11;6.30;99.90
8152;DHT22;4117;53.622;9.958;2022-12-20T01:27:38;6.30;99.90
8152;DHT22;4117;53.622;9.958;2022-12-20T01:30:06;6.30;99.90
8152;DHT22;4117;53.622;9.958;2022-12-20T01:32:33;6.30;99.90
8152;DHT22;4117;53.622;9.958;2022-12-20T01:35:00;6.30;99.90
8152;DHT22;4117;53.622;9.958;2022-12-20T01:37:27;6.40;99.90
8152;DHT22;4117;53.622;9.958;2022-12-20T01:39:54;6.50;99.90
8152;DHT22;4117;53.622;9.958;2022-12-20T01:42:22;6.50;99.90
8152;DHT22;4117;53.622;9.958;2022-12-20T01:44:56;6.50;99.90
8152;DHT22;4117;53.622;9.958;2022-12-20T01:47:24;6.50;99.90
8152;DHT22;4117;53.622;9.958;2022-12-20T01:49:53;6.50;99.90
8152;DHT22;4117;53.622;9.958;2022-12-20T01:52:25;6.50;99.90
8152;DHT22;4117;53.622;9.958;2022-12-20T01:54:55;6.50;99.90
8152;DHT22;4117;53.622;9.958;2022-12-20T01:57:30;6.60;99.90
8152;DHT22;4117;53.622;9.958;2022-12-20T01:59:58;6.70;99.90
8152;DHT22;4117;53.622;9.958;2022-12-20T02:02:25;6.70;99.90
8152;DHT22;4117;53.622;9.958;2022-12-20T02:04:52;6.70;99.90
8152;DHT22;4117;53.622;9.958;2022-12-20T02:07:23;6.70;99.90
8152;DHT22;4117;53.622;9.958;2022-12-20T02:09:53;6.70;99.90
8152;DHT22;4117;53.622;9.958;2022-12-20T02:12:22;6.70;99.90
8152;DHT22;4117;53.622;9.958;2022-12-20T02:15:02;6.70;99.90
8152;DHT22;4117;53.622;9.958;2022-12-20T02:17:37;6.80;99.90
8152;DHT22;4117;53.622;9.958;2022-12-20T02:20:27;6.80;99.90
8152;DHT22;4117;53.622;9.958;2022-12-20T02:26:06;6.90;99.90
8152;DHT22;4117;53.622;9.958;2022-12-20T02:28:51;6.90;99.90
8152;DHT22;4117;53.622;9.958;2022-12-20T02:31:25;6.90;99.90
8152;DHT22;4117;53.622;9.958;2022-12-20T02:33:54;6.90;99.90
8152;DHT22;4117;53.622;9.958;2022-12-20T02:36:22;7.00;99.90
8152;DHT22;4117;53.622;9.958;2022-12-20T02:38:50;7.00;99.90
8152;DHT22;4117;53.622;9.958;2022-12-20T02:41:19;7.00;99.90
8152;DHT22;4117;53.622;9.958;2022-12-20T02:43:50;7.00;99.90
8152;DHT22;4117;53.622;9.958;2022-12-20T02:46:39;7.10;99.90
8152;DHT22;4117;53.622;9.958;2022-12-20T02:49:09;7.10;99.90
8152;DHT22;4117;53.622;9.958;2022-12-20T02:51:38;7.10;99.90
8152;DHT22;4117;53.622;9.958;2022-12-20T02:54:07;7.10;99.90
8152;DHT22;4117;53.622;9.958;2022-12-20T02:56:37;7.10;99.90
8152;DHT22;4117;53.622;9.958;2022-12-20T02:59:09;7.20;99.90
8152;DHT22;4117;53.622;9.958;2022-12-20T03:04:16;7.20;99.90
8152;DHT22;4117;53.622;9.958;2022-12-20T03:06:55;7.20;99.90
8152;DHT22;4117;53.622;9.958;2022-12-20T03:09:22;7.20;99.90
8152;DHT22;4117;53.622;9.958;2022-12-20T03:11:50;7.30;99.90
8152;DHT22;4117;53.622;9.958;2022-12-20T03:14:17;7.30;99.90
8152;DHT22;4117;53.622;9.958;2022-12-20T03:16:44;7.30;99.90
8152;DHT22;4117;53.622;9.958;2022-12-20T03:19:12;7.30;99.90
8152;DHT22;4117;53.622;9.958;2022-12-20T03:21:39;7.40;99.90
8152;DHT22;4117;53.622;9.958;2022-12-20T03:24:07;7.40;99.90
8152;DHT22;4117;53.622;9.958;2022-12-20T03:26:35;7.40;99.90
8152;DHT22;4117;53.622;9.958;2022-12-20T03:29:02;7.60;99.90
8152;DHT22;4117;53.622;9.958;2022-12-20T03:31:29;7.50;99.90
8152;DHT22;4117;53.622;9.958;2022-12-20T03:33:56;7.50;99.90
8152;DHT22;4117;53.622;9.958;2022-12-20T03:36:25;7.50;99.90
8152;DHT22;4117;53.622;9.958;2022-12-20T03:38:52;7.60;99.90
8152;DHT22;4117;53.622;9.958;2022-12-20T03:41:20;7.60;99.90
8152;DHT22;4117;53.622;9.958;2022-12-20T03:43:47;7.60;99.90
8152;DHT22;4117;53.622;9.958;2022-12-20T03:46:14;7.60;99.90
8152;DHT22;4117;53.622;9.958;2022-12-20T03:48:41;7.60;99.90
8152;DHT22;4117;53.622;9.958;2022-12-20T03:51:08;7.60;99.90
8152;DHT22;4117;53.622;9.958;2022-12-20T03:53:36;7.60;99.90
8152;DHT22;4117;53.622;9.958;2022-12-20T03:56:04;7.70;99.90
8152;DHT22;4117;53.622;9.958;2022-12-20T03:58:31;7.70;99.90
8152;DHT22;4117;53.622;9.958;2022-12-20T04:00:57;7.70;99.90
8152;DHT22;4117;53.622;9.958;2022-12-20T04:03:24;7.70;99.90
8152;DHT22;4117;53.622;9.958;2022-12-20T04:05:51;7.80;99.90
8152;DHT22;4117;53.622;9.958;2022-12-20T04:08:18;7.80;99.90
8152;DHT22;4117;53.622;9.958;2022-12-20T04:10:46;7.80;99.90
8152;DHT22;4117;53.622;9.958;2022-12-20T04:13:31;7.80;99.90
8152;DHT22;4117;53.622;9.958;2022-12-20T04:15:57;7.80;99.90
8152;DHT22;4117;53.622;9.958;2022-12-20T04:18:24;7.90;99.90
8152;DHT22;4117;53.622;9.958;2022-12-20T04:20:52;7.90;99.90
8152;DHT22;4117;53.622;9.958;2022-12-20T04:23:19;7.80;99.90
8152;DHT22;4117;53.622;9.958;2022-12-20T04:25:47;7.90;99.90
8152;DHT22;4117;53.622;9.958;2022-12-20T04:28:14;7.90;99.90
8152;DHT22;4117;53.622;9.958;2022-12-20T04:30:41;7.90;99.90
8152;DHT22;4117;53.622;9.958;2022-12-20T04:33:08;8.00;99.90
8152;DHT22;4117;53.622;9.958;2022-12-20T04:35:35;7.90;99.90
8152;DHT22;4117;53.622;9.958;2022-12-20T04:38:03;8.00;99.90
8152;DHT22;4117;53.622;9.958;2022-12-20T04:40:30;7.90;99.90
8152;DHT22;4117;53.622;9.958;2022-12-20T04:42:58;7.90;99.90
8152;DHT22;4117;53.622;9.958;2022-12-20T04:45:25;7.90;99.90
8152;DHT22;4117;53.622;9.958;2022-12-20T04:47:52;8.00;99.90
8152;DHT22;4117;53.622;9.958;2022-12-20T04:50:19;8.00;99.90
8152;DHT22;4117;53.622;9.958;2022-12-20T04:52:46;8.00;99.90
8152;DHT22;4117;53.622;9.958;2022-12-20T04:55:30;8.00;99.90
8152;DHT22;4117;53.622;9.958;2022-12-20T04:58:03;8.00;99.90
8152;DHT22;4117;53.622;9.958;2022-12-20T05:00:30;8.00;99.90
8152;DHT22;4117;53.622;9.958;2022-12-20T05:02:57;8.00;99.90
8152;DHT22;4117;53.622;9.958;2022-12-20T05:05:24;8.10;99.90
8152;DHT22;4117;53.622;9.958;2022-12-20T05:07:52;8.00;99.90
8152;DHT22;4117;53.622;9.958;2022-12-20T05:10:19;8.10;99.90
8152;DHT22;4117;53.622;9.958;2022-12-20T05:12:46;8.00;99.90
8152;DHT22;4117;53.622;9.958;2022-12-20T05:15:14;8.00;99.90
8152;DHT22;4117;53.622;9.958;2022-12-20T05:17:41;8.00;99.90
8152;DHT22;4117;53.622;9.958;2022-12-20T05:20:09;8.00;99.90
8152;DHT22;4117;53.622;9.958;2022-12-20T05:22:36;8.00;99.90
8152;DHT22;4117;53.622;9.958;2022-12-20T05:25:20;8.00;99.90
8152;DHT22;4117;53.622;9.958;2022-12-20T05:28:04;8.00;99.90
8152;DHT22;4117;53.622;9.958;2022-12-20T05:30:32;8.00;99.90
8152;DHT22;4117;53.622;9.958;2022-12-20T05:32:59;8.00;99.90
8152;DHT22;4117;53.622;9.958;2022-12-20T05:35:26;8.00;99.90
8152;DHT22;4117;53.622;9.958;2022-12-20T05:37:53;8.00;99.90
8152;DHT22;4117;53.622;9.958;2022-12-20T05:40:20;8.00;99.90
8152;DHT22;4117;53.622;9.958;2022-12-20T05:42:47;8.00;99.90
8152;DHT22;4117;53.622;9.958;2022-12-20T05:45:14;8.00;99.90
8152;DHT22;4117;53.622;9.958;2022-12-20T05:47:42;8.00;99.90
8152;DHT22;4117;53.622;9.958;2022-12-20T05:50:09;8.00;99.90
8152;DHT22;4117;53.622;9.958;2022-12-20T05:52:36;8.00;99.90
8152;DHT22;4117;53.622;9.958;2022-12-20T05:55:04;8.00;99.90
8152;DHT22;4117;53.622;9.958;2022-12-20T05:57:31;8.00;99.90
8152;DHT22;4117;53.622;9.958;2022-12-20T05:59:58;8.00;99.90
8152;DHT22;4117;53.622;9.958;2022-12-20T06:02:25;8.00;99.90
8152;DHT22;4117;53.622;9.958;2022-12-20T06:04:53;8.10;99.90
8152;DHT22;4117;53.622;9.958;2022-12-20T06:07:20;8.00;99.90
8152;DHT22;4117;53.622;9.958;2022-12-20T06:09:47;8.00;99.90
8152;DHT22;4117;53.622;9.958;2022-12-20T06:12:13;8.10;99.90
8152;DHT22;4117;53.622;9.958;2022-12-20T06:14:40;8.10;99.90
8152;DHT22;4117;53.622;9.958;2022-12-20T06:17:07;8.10;99.90
8152;DHT22;4117;53.622;9.958;2022-12-20T06:19:36;8.10;99.90
8152;DHT22;4117;53.622;9.958;2022-12-20T06:22:06;8.10;99.90
8152;DHT22;4117;53.622;9.958;2022-12-20T06:24:33;8.10;99.90
8152;DHT22;4117;53.622;9.958;2022-12-20T06:27:00;8.20;99.90
8152;DHT22;4117;53.622;9.958;2022-12-20T06:29:27;8.20;99.90
8152;DHT22;4117;53.622;9.958;2022-12-20T06:31:54;8.20;99.90
8152;DHT22;4117;53.622;9.958;2022-12-20T06:34:21;8.20;99.90
8152;DHT22;4117;53.622;9.958;2022-12-20T06:36:48;8.30;99.90
8152;DHT22;4117;53.622;9.958;2022-12-20T06:39:16;8.30;99.90
8152;DHT22;4117;53.622;9.958;2022-12-20T06:41:43;8.30;99.90
8152;DHT22;4117;53.622;9.958;2022-12-20T06:44:10;8.30;99.90
8152;DHT22;4117;53.622;9.958;2022-12-20T06:46:37;8.30;99.90
8152;DHT22;4117;53.622;9.958;2022-12-20T06:49:03;8.40;99.90
8152;DHT22;4117;53.622;9.958;2022-12-20T06:51:30;8.40;99.90
8152;DHT22;4117;53.622;9.958;2022-12-20T06:53:57;8.40;99.90
8152;DHT22;4117;53.622;9.958;2022-12-20T06:56:26;8.50;99.90
8152;DHT22;4117;53.622;9.958;2022-12-20T06:58:52;8.40;99.90
8152;DHT22;4117;53.622;9.958;2022-12-20T07:01:19;8.40;99.90
8152;DHT22;4117;53.622;9.958;2022-12-20T07:03:46;8.40;99.90
8152;DHT22;4117;53.622;9.958;2022-12-20T07:06:13;8.40;99.90
8152;DHT22;4117;53.622;9.958;2022-12-20T07:08:40;8.50;99.90
8152;DHT22;4117;53.622;9.958;2022-12-20T07:11:07;8.50;99.90
8152;DHT22;4117;53.622;9.958;2022-12-20T07:13:35;8.50;99.90
8152;DHT22;4117;53.622;9.958;2022-12-20T07:16:03;8.50;99.90
8152;DHT22;4117;53.622;9.958;2022-12-20T07:18:30;8.50;99.90
8152;DHT22;4117;53.622;9.958;2022-12-20T07:20:58;8.50;99.90
8152;DHT22;4117;53.622;9.958;2022-12-20T07:23:25;8.50;99.90
8152;DHT22;4117;53.622;9.958;2022-12-20T07:25:53;8.60;99.90
8152;DHT22;4117;53.622;9.958;2022-12-20T07:28:20;8.60;99.90
8152;DHT22;4117;53.622;9.958;2022-12-20T07:30:49;8.50;99.90
8152;DHT22;4117;53.622;9.958;2022-12-20T07:33:16;8.50;99.90
8152;DHT22;4117;53.622;9.958;2022-12-20T07:35:44;8.50;99.90
8152;DHT22;4117;53.622;9.958;2022-12-20T07:38:11;8.50;99.90
8152;DHT22;4117;53.622;9.958;2022-12-20T07:40:39;8.50;99.90
8152;DHT22;4117;53.622;9.958;2022-12-20T07:43:07;8.50;99.90
8152;DHT22;4117;53.622;9.958;2022-12-20T07:45:35;8.50;99.90
8152;DHT22;4117;53.622;9.958;2022-12-20T07:48:04;8.50;99.90
8152;DHT22;4117;53.622;9.958;2022-12-20T07:50:31;8.50;99.90
8152;DHT22;4117;53.622;9.958;2022-12-20T07:52:59;8.50;99.90
8152;DHT22;4117;53.622;9.958;2022-12-20T07:55:27;8.50;99.90
8152;DHT22;4117;53.622;9.958;2022-12-20T07:57:57;8.60;99.90
8152;DHT22;4117;53.622;9.958;2022-12-20T08:00:27;8.60;99.90
8152;DHT22;4117;53.622;9.958;2022-12-20T08:02:57;8.50;99.90
8152;DHT22;4117;53.622;9.958;2022-12-20T08:05:26;8.50;99.90
8152;DHT22;4117;53.622;9.958;2022-12-20T08:07:55;8.60;99.90
8152;DHT22;4117;53.622;9.958;2022-12-20T08:10:24;8.60;99.90
8152;DHT22;4117;53.622;9.958;2022-12-20T08:12:51;8.60;99.90
8152;DHT22;4117;53.622;9.958;2022-12-20T08:15:18;8.50;99.90
8152;DHT22;4117;53.622;9.958;2022-12-20T08:17:47;8.50;99.90
8152;DHT22;4117;53.622;9.958;2022-12-20T08:20:15;8.60;99.90
8152;DHT22;4117;53.622;9.958;2022-12-20T08:22:43;8.60;99.90
8152;DHT22;4117;53.622;9.958;2022-12-20T08:25:10;8.60;99.90
8152;DHT22;4117;53.622;9.958;2022-12-20T08:27:37;8.60;99.90
8152;DHT22;4117;53.622;9.958;2022-12-20T08:30:05;8.60;99.90
8152;DHT22;4117;53.622;9.958;2022-12-20T08:32:33;8.60;99.90
8152;DHT22;4117;53.622;9.958;2022-12-20T08:35:00;8.60;99.90
8152;DHT22;4117;53.622;9.958;2022-12-20T08:37:27;8.70;99.90
8152;DHT22;4117;53.622;9.958;2022-12-20T08:39:55;8.70;99.90
8152;DHT22;4117;53.622;9.958;2022-12-20T08:42:22;8.80;99.90
8152;DHT22;4117;53.622;9.958;2022-12-20T08:44:49;8.80;99.90
8152;DHT22;4117;53.622;9.958;2022-12-20T08:47:16;8.80;99.90
8152;DHT22;4117;53.622;9.958;2022-12-20T08:49:44;8.80;99.90
8152;DHT22;4117;53.622;9.958;2022-12-20T08:52:11;8.80;99.90
8152;DHT22;4117;53.622;9.958;2022-12-20T08:54:38;8.90;99.90
8152;DHT22;4117;53.622;9.958;2022-12-20T08:57:06;8.90;99.90
8152;DHT22;4117;53.622;9.958;2022-12-20T08:59:33;8.90;99.90
8152;DHT22;4117;53.622;9.958;2022-12-20T09:02:00;8.90;99.90
8152;DHT22;4117;53.622;9.958;2022-12-20T09:04:27;9.00;99.90
8152;DHT22;4117;53.622;9.958;2022-12-20T09:06:54;9.00;99.90
8152;DHT22;4117;53.622;9.958;2022-12-20T09:09:21;9.00;99.90
8152;DHT22;4117;53.622;9.958;2022-12-20T09:11:48;9.00;99.90
8152;DHT22;4117;53.622;9.958;2022-12-20T09:14:17;9.00;99.90
8152;DHT22;4117;53.622;9.958;2022-12-20T09:16:44;9.00;99.90
8152;DHT22;4117;53.622;9.958;2022-12-20T09:19:12;9.10;99.90
8152;DHT22;4117;53.622;9.958;2022-12-20T09:21:39;9.00;99.90
8152;DHT22;4117;53.622;9.958;2022-12-20T09:24:08;9.10;99.90
8152;DHT22;4117;53.622;9.958;2022-12-20T09:26:35;9.10;99.90
8152;DHT22;4117;53.622;9.958;2022-12-20T09:29:03;9.20;99.90
8152;DHT22;4117;53.622;9.958;2022-12-20T09:31:32;9.10;99.90
8152;DHT22;4117;53.622;9.958;2022-12-20T09:33:59;9.10;99.90
8152;DHT22;4117;53.622;9.958;2022-12-20T09:36:28;9.20;99.90
8152;DHT22;4117;53.622;9.958;2022-12-20T09:38:56;9.20;99.90
8152;DHT22;4117;53.622;9.958;2022-12-20T09:41:27;9.30;99.90
8152;DHT22;4117;53.622;9.958;2022-12-20T09:43:56;9.20;99.90
8152;DHT22;4117;53.622;9.958;2022-12-20T09:46:24;9.20;99.90
8152;DHT22;4117;53.622;9.958;2022-12-20T09:48:53;9.20;99.90
8152;DHT22;4117;53.622;9.958;2022-12-20T09:51:43;9.30;99.90
8152;DHT22;4117;53.622;9.958;2022-12-20T09:54:19;9.30;99.90
8152;DHT22;4117;53.622;9.958;2022-12-20T09:56:58;9.30;99.90
8152;DHT22;4117;53.622;9.958;2022-12-20T09:59:27;9.30;99.90
8152;DHT22;4117;53.622;9.958;2022-12-20T10:01:54;9.30;99.90
8152;DHT22;4117;53.622;9.958;2022-12-20T10:04:23;9.30;99.90
8152;DHT22;4117;53.622;9.958;2022-12-20T10:07:02;9.20;99.90
8152;DHT22;4117;53.622;9.958;2022-12-20T10:09:42;9.20;99.90
8152;DHT22;4117;53.622;9.958;2022-12-20T10:12:23;9.20;99.90
8152;DHT22;4117;53.622;9.958;2022-12-20T10:15:03;9.20;99.90
8152;DHT22;4117;53.622;9.958;2022-12-20T10:17:49;9.20;99.90
8152;DHT22;4117;53.622;9.958;2022-12-20T10:20:33;9.20;99.90
8152;DHT22;4117;53.622;9.958;2022-12-20T10:23:08;9.20;99.90
8152;DHT22;4117;53.622;9.958;2022-12-20T10:25:39;9.20;99.90
8152;DHT22;4117;53.622;9.958;2022-12-20T10:28:12;9.20;99.90
8152;DHT22;4117;53.622;9.958;2022-12-20T10:30:40;9.30;99.90
8152;DHT22;4117;53.622;9.958;2022-12-20T10:33:15;9.20;99.90
8152;DHT22;4117;53.622;9.958;2022-12-20T10:35:45;9.20;99.90
8152;DHT22;4117;53.622;9.958;2022-12-20T10:38:13;9.30;99.90
8152;DHT22;4117;53.622;9.958;2022-12-20T10:40:43;9.20;99.90
8152;DHT22;4117;53.622;9.958;2022-12-20T10:43:15;9.30;99.90
8152;DHT22;4117;53.622;9.958;2022-12-20T10:45:43;9.30;99.90
8152;DHT22;4117;53.622;9.958;2022-12-20T10:48:25;9.40;99.90
8152;DHT22;4117;53.622;9.958;2022-12-20T10:50:57;9.40;99.90
8152;DHT22;4117;53.622;9.958;2022-12-20T10:53:24;9.50;99.90
8152;DHT22;4117;53.622;9.958;2022-12-20T10:55:52;9.50;99.90
8152;DHT22;4117;53.622;9.958;2022-12-20T10:58:29;9.50;99.90
8152;DHT22;4117;53.622;9.958;2022-12-20T11:01:10;9.60;99.90
8152;DHT22;4117;53.622;9.958;2022-12-20T11:03:49;9.70;99.90
8152;DHT22;4117;53.622;9.958;2022-12-20T11:06:20;9.70;99.90
8152;DHT22;4117;53.622;9.958;2022-12-20T11:08:48;9.70;99.90
8152;DHT22;4117;53.622;9.958;2022-12-20T11:11:17;9.80;99.90
8152;DHT22;4117;53.622;9.958;2022-12-20T11:13:45;9.90;99.90
8152;DHT22;4117;53.622;9.958;2022-12-20T11:16:23;9.80;99.90
8152;DHT22;4117;53.622;9.958;2022-12-20T11:19:00;9.80;99.90
8152;DHT22;4117;53.622;9.958;2022-12-20T11:21:36;9.90;99.90
8152;DHT22;4117;53.622;9.958;2022-12-20T11:24:11;9.90;99.90
8152;DHT22;4117;53.622;9.958;2022-12-20T11:26:54;10.00;99.90
8152;DHT22;4117;53.622;9.958;2022-12-20T11:29:46;10.00;98.20
8152;DHT22;4117;53.622;9.958;2022-12-20T11:32:26;10.10;94.80
8152;DHT22;4117;53.622;9.958;2022-12-20T11:35:00;10.10;94.40
8152;DHT22;4117;53.622;9.958;2022-12-20T11:37:34;10.10;93.80
8152;DHT22;4117;53.622;9.958;2022-12-20T11:40:10;10.10;91.90
8152;DHT22;4117;53.622;9.958;2022-12-20T11:42:51;10.10;94.50
8152;DHT22;4117;53.622;9.958;2022-12-20T11:45:24;10.10;90.90
8152;DHT22;4117;53.622;9.958;2022-12-20T11:48:19;10.10;92.50
8152;DHT22;4117;53.622;9.958;2022-12-20T11:51:03;10.10;88.40
8152;DHT22;4117;53.622;9.958;2022-12-20T11:53:35;10.00;88.20
8152;DHT22;4117;53.622;9.958;2022-12-20T11:56:07;10.10;85.10
8152;DHT22;4117;53.622;9.958;2022-12-20T11:58:45;10.10;84.40
8152;DHT22;4117;53.622;9.958;2022-12-20T12:01:16;10.10;81.10
8152;DHT22;4117;53.622;9.958;2022-12-20T12:03:48;10.10;84.20
8152;DHT22;4117;53.622;9.958;2022-12-20T12:06:23;10.10;82.60
8152;DHT22;4117;53.622;9.958;2022-12-20T12:09:03;10.00;82.10
8152;DHT22;4117;53.622;9.958;2022-12-20T12:11:31;10.00;75.60
8152;DHT22;4117;53.622;9.958;2022-12-20T12:14:02;10.10;70.00
8152;DHT22;4117;53.622;9.958;2022-12-20T12:16:33;10.10;68.30
8152;DHT22;4117;53.622;9.958;2022-12-20T12:19:01;10.30;62.50
8152;DHT22;4117;53.622;9.958;2022-12-20T12:21:32;10.20;62.60
8152;DHT22;4117;53.622;9.958;2022-12-20T12:24:06;10.10;63.90
8152;DHT22;4117;53.622;9.958;2022-12-20T12:26:37;10.10;64.80
8152;DHT22;4117;53.622;9.958;2022-12-20T12:29:10;10.10;73.10
8152;DHT22;4117;53.622;9.958;2022-12-20T12:31:40;10.00;72.90
8152;DHT22;4117;53.622;9.958;2022-12-20T12:34:19;10.00;77.10
8152;DHT22;4117;53.622;9.958;2022-12-20T12:37:21;9.90;78.10
8152;DHT22;4117;53.622;9.958;2022-12-20T12:45:44;9.80;91.10
8152;DHT22;4117;53.622;9.958;2022-12-20T12:48:15;9.70;92.10
8152;DHT22;4117;53.622;9.958;2022-12-20T12:50:45;9.70;95.20
8152;DHT22;4117;53.622;9.958;2022-12-20T12:53:16;9.70;96.80
8152;DHT22;4117;53.622;9.958;2022-12-20T12:55:46;9.60;99.90
8152;DHT22;4117;53.622;9.958;2022-12-20T12:58:30;9.60;99.90
8152;DHT22;4117;53.622;9.958;2022-12-20T13:00:59;9.60;99.90
8152;DHT22;4117;53.622;9.958;2022-12-20T13:04:10;9.60;99.90
8152;DHT22;4117;53.622;9.958;2022-12-20T13:09:46;9.50;99.90
8152;DHT22;4117;53.622;9.958;2022-12-20T13:12:54;9.50;99.90
8152;DHT22;4117;53.622;9.958;2022-12-20T13:15:47;9.50;99.90
8152;DHT22;4117;53.622;9.958;2022-12-20T13:18:25;9.50;99.90
8152;DHT22;4117;53.622;9.958;2022-12-20T13:21:23;9.40;99.90
8152;DHT22;4117;53.622;9.958;2022-12-20T13:27:12;9.40;99.90
8152;DHT22;4117;53.622;9.958;2022-12-20T13:29:51;9.40;99.90
8152;DHT22;4117;53.622;9.958;2022-12-20T13:32:52;9.40;99.90
8152;DHT22;4117;53.622;9.958;2022-12-20T13:35:39;9.40;99.90
8152;DHT22;4117;53.622;9.958;2022-12-20T13:38:37;9.40;99.90
8152;DHT22;4117;53.622;9.958;2022-12-20T13:41:11;9.40;99.90
8152;DHT22;4117;53.622;9.958;2022-12-20T13:43:43;9.30;99.90
8152;DHT22;4117;53.622;9.958;2022-12-20T13:46:19;9.30;99.90
8152;DHT22;4117;53.622;9.958;2022-12-20T13:48:51;9.30;99.90
8152;DHT22;4117;53.622;9.958;2022-12-20T13:51:20;9.30;99.90
8152;DHT22;4117;53.622;9.958;2022-12-20T13:53:51;9.30;99.90
8152;DHT22;4117;53.622;9.958;2022-12-20T13:56:35;9.30;99.90
8152;DHT22;4117;53.622;9.958;2022-12-20T13:59:06;9.20;99.90
8152;DHT22;4117;53.622;9.958;2022-12-20T14:01:35;9.20;99.90
8152;DHT22;4117;53.622;9.958;2022-12-20T14:04:03;9.20;99.90
8152;DHT22;4117;53.622;9.958;2022-12-20T14:06:32;9.20;99.90
8152;DHT22;4117;53.622;9.958;2022-12-20T14:09:00;9.20;99.90
8152;DHT22;4117;53.622;9.958;2022-12-20T14:11:27;9.20;99.90
8152;DHT22;4117;53.622;9.958;2022-12-20T14:13:55;9.20;99.90
8152;DHT22;4117;53.622;9.958;2022-12-20T14:16:24;9.20;99.90
8152;DHT22;4117;53.622;9.958;2022-12-20T14:19:01;9.20;99.90
8152;DHT22;4117;53.622;9.958;2022-12-20T14:21:29;9.10;99.90
8152;DHT22;4117;53.622;9.958;2022-12-20T14:23:57;9.10;99.90
8152;DHT22;4117;53.622;9.958;2022-12-20T14:26:28;9.10;99.90
8152;DHT22;4117;53.622;9.958;2022-12-20T14:28:56;9.10;99.90
8152;DHT22;4117;53.622;9.958;2022-12-20T14:31:26;9.10;99.90
8152;DHT22;4117;53.622;9.958;2022-12-20T14:34:05;9.10;99.90
8152;DHT22;4117;53.622;9.958;2022-12-20T14:36:37;9.10;99.90
8152;DHT22;4117;53.622;9.958;2022-12-20T14:39:23;9.10;99.90
8152;DHT22;4117;53.622;9.958;2022-12-20T14:41:54;9.00;99.90
8152;DHT22;4117;53.622;9.958;2022-12-20T14:44:23;9.00;99.90
8152;DHT22;4117;53.622;9.958;2022-12-20T14:46:52;9.00;99.90
8152;DHT22;4117;53.622;9.958;2022-12-20T14:49:24;9.00;99.90
8152;DHT22;4117;53.622;9.958;2022-12-20T14:52:04;9.00;99.90
8152;DHT22;4117;53.622;9.958;2022-12-20T14:54:32;9.00;99.90
8152;DHT22;4117;53.622;9.958;2022-12-20T14:57:00;9.00;99.90
8152;DHT22;4117;53.622;9.958;2022-12-20T14:59:28;9.00;99.90
8152;DHT22;4117;53.622;9.958;2022-12-20T15:01:56;9.00;99.90
8152;DHT22;4117;53.622;9.958;2022-12-20T15:04:31;9.00;99.90
8152;DHT22;4117;53.622;9.958;2022-12-20T15:06:58;9.00;99.90
8152;DHT22;4117;53.622;9.958;2022-12-20T15:09:25;8.90;99.90
8152;DHT22;4117;53.622;9.958;2022-12-20T15:11:52;9.00;99.90
8152;DHT22;4117;53.622;9.958;2022-12-20T15:14:31;9.00;99.90
8152;DHT22;4117;53.622;9.958;2022-12-20T15:16:58;8.90;99.90
8152;DHT22;4117;53.622;9.958;2022-12-20T15:19:26;8.90;99.90
8152;DHT22;4117;53.622;9.958;2022-12-20T15:21:55;8.90;99.90
8152;DHT22;4117;53.622;9.958;2022-12-20T15:24:24;8.90;99.90
8152;DHT22;4117;53.622;9.958;2022-12-20T15:26:51;8.90;99.90
8152;DHT22;4117;53.622;9.958;2022-12-20T15:29:19;8.90;99.90
8152;DHT22;4117;53.622;9.958;2022-12-20T15:31:47;8.90;99.90
8152;DHT22;4117;53.622;9.958;2022-12-20T15:34:18;8.80;99.90
8152;DHT22;4117;53.622;9.958;2022-12-20T15:36:49;8.80;99.90
8152;DHT22;4117;53.622;9.958;2022-12-20T15:39:15;8.80;99.90
8152;DHT22;4117;53.622;9.958;2022-12-20T15:41:44;8.80;99.90
8152;DHT22;4117;53.622;9.958;2022-12-20T15:44:14;8.80;99.90
8152;DHT22;4117;53.622;9.958;2022-12-20T15:46:41;8.80;99.90
8152;DHT22;4117;53.622;9.958;2022-12-20T15:49:12;8.80;99.90
8152;DHT22;4117;53.622;9.958;2022-12-20T15:51:40;8.80;99.90
8152;DHT22;4117;53.622;9.958;2022-12-20T15:54:18;8.80;99.90
8152;DHT22;4117;53.622;9.958;2022-12-20T15:56:46;8.80;99.90
8152;DHT22;4117;53.622;9.958;2022-12-20T15:59:13;8.80;99.90
8152;DHT22;4117;53.622;9.958;2022-12-20T16:01:40;8.80;99.90
8152;DHT22;4117;53.622;9.958;2022-12-20T16:04:09;8.80;99.90
8152;DHT22;4117;53.622;9.958;2022-12-20T16:06:38;8.80;99.90
8152;DHT22;4117;53.622;9.958;2022-12-20T16:09:05;8.80;99.90
8152;DHT22;4117;53.622;9.958;2022-12-20T16:11:33;8.80;99.90
8152;DHT22;4117;53.622;9.958;2022-12-20T16:14:00;8.80;99.90
8152;DHT22;4117;53.622;9.958;2022-12-20T16:16:29;8.80;99.90
8152;DHT22;4117;53.622;9.958;2022-12-20T16:18:56;8.80;99.90
8152;DHT22;4117;53.622;9.958;2022-12-20T16:21:24;8.80;99.90
8152;DHT22;4117;53.622;9.958;2022-12-20T16:23:52;8.80;99.90
8152;DHT22;4117;53.622;9.958;2022-12-20T16:26:20;8.80;99.90
8152;DHT22;4117;53.622;9.958;2022-12-20T16:28:50;8.80;99.90
8152;DHT22;4117;53.622;9.958;2022-12-20T16:31:22;8.80;99.90
8152;DHT22;4117;53.622;9.958;2022-12-20T16:33:50;8.80;99.90
8152;DHT22;4117;53.622;9.958;2022-12-20T16:36:17;8.80;99.90
8152;DHT22;4117;53.622;9.958;2022-12-20T16:38:44;8.80;99.90
8152;DHT22;4117;53.622;9.958;2022-12-20T16:41:13;8.90;99.90
8152;DHT22;4117;53.622;9.958;2022-12-20T16:43:40;8.80;99.90
8152;DHT22;4117;53.622;9.958;2022-12-20T16:46:11;8.90;99.90
8152;DHT22;4117;53.622;9.958;2022-12-20T16:48:38;8.90;99.90
8152;DHT22;4117;53.622;9.958;2022-12-20T16:51:24;8.90;99.90
8152;DHT22;4117;53.622;9.958;2022-12-20T16:53:52;8.90;99.90
8152;DHT22;4117;53.622;9.958;2022-12-20T16:56:19;8.90;99.90